Chicago Rockford International Airport Chicago,Rockford US
ICAO: KRFD
IATA: RFD
Category: Large
Scheduled Services: Yes

Elevation: 742 ft
TransAlt. 18000 ft.

Airport Communications:
ROCKFORD APP/DEP:121
ATIS:126.7
CLNC DEL:119.25
GND:121.9
KANKAKEE RDO:122.65
ROCKFORD TWR:118.3
UNICOM:122.95

KRFD Zoom In..

Runways:

(A) RW 01 length 8200 ft width 150 ft
ILS 109.30 / hdg 5

(B) RW 07 length 10002 ft width 150 ft
ILS 109.55 / hdg 65

(C) RW 19 length 8200 ft width 150 ft
---- / hdg 185

(D) RW 25 length 10002 ft width 150 ft
---- / hdg 245

Location; KRFD
Day. 16 / Time. 17.54 Zulu
* Altimeter: 29.97
* Temperature: 29° c. 84.2°f.
* Wind from: 320° Speed 12 kn.
Dewpoint: 23° c.
Visibility: 10 Statute Miles.
Clouds: Scattered 2300 ft.
Clouds: Scattered 25000 ft.
Conditions: Towering CB.

KRFD 161754Z 32012KT 10SM SCT023TCU SCT250 29/23 A2997 RMK AO2 LTG DSNT SE AND S SLP144 TCU OHD 60000 T02940233 10300 20222 50001


Wind From 320°
Speed 12 kn.

 
 
jpsmedia.com for Web Design worldairports.se 2018   terms of use